首页
METAR-TAF:

METAR-TAF

机场 :

Baraboo Wisconsin Dells Airport

Baraboo / Wisconsin Dells, 威斯康辛州, 美国

纬度: 43-31-19N, 经度: 089-46-15W, 海拔: 298米

当前天气观测

该预报发布于17分钟前的14:55 UTC
静风
温度 19°C
湿度 94%
气压 1010 hPa
能見度: 16.1公里
散云层高于3300英尺
多云层高于4100英尺
阴天层高于5000英尺
小毛毛雨

METAR: KDLL 221455Z AUTO 00000KT 10SM -DZ SCT033 BKN041 OVC050 19/18 A2982 RMK AO2 P0002 60015 T01850184

时间: 10:12 (15:12 UTC)


TAF: 丢失

超过4000个机场的气象观测和天气预报(METAR&TAF报告)。

可查询的气象台以黄色和红色小点在地图上表示。

将鼠标移到小点上方,可查看气象台名称。

然后点击查看天气观测和预报。

如需切换地图:点击带黑十字的绿色按钮放大地图;点击带横线的绿色按钮缩小地图;或者点击绿色箭头查看邻近地区的地图。


METAR-TAF: